createdAt,value
2018-11-04T00:02:29.584Z,32.70
2018-11-04T00:05:32.621Z,28.87
2018-11-04T00:08:35.657Z,38.17
2018-11-04T00:11:38.747Z,41.17
2018-11-04T00:14:41.741Z,34.20
2018-11-04T00:17:44.769Z,46.57
2018-11-04T00:20:47.820Z,45.83
2018-11-04T00:23:51.145Z,37.53
2018-11-04T00:26:54.185Z,35.97
2018-11-04T00:29:57.307Z,39.93
2018-11-04T00:33:00.299Z,36.17
2018-11-04T00:36:03.356Z,36.63
2018-11-04T00:39:07.735Z,29.33
2018-11-04T00:42:10.712Z,38.87
2018-11-04T00:45:13.738Z,40.30
2018-11-04T00:48:16.695Z,36.60
2018-11-04T00:51:19.668Z,36.10
2018-11-04T00:54:22.687Z,36.30
2018-11-04T00:57:25.648Z,43.03
2018-11-04T01:00:28.783Z,35.70
2018-11-04T01:03:31.836Z,40.50
2018-11-04T01:06:34.856Z,38.50
2018-11-04T01:09:37.816Z,47.83
2018-11-04T01:12:41.889Z,34.63
2018-11-04T01:15:44.924Z,40.57
2018-11-04T01:18:47.948Z,35.53
2018-11-04T01:21:50.984Z,39.17
2018-11-04T01:24:54.263Z,62.67
2018-11-04T01:27:57.325Z,64.73
2018-11-04T01:31:00.324Z,54.63
2018-11-04T01:34:03.376Z,51.27
2018-11-04T01:37:06.376Z,62.33
2018-11-04T01:40:09.896Z,49.00
2018-11-04T01:43:12.991Z,76.40
2018-11-04T01:46:15.954Z,60.60
2018-11-04T01:49:18.971Z,75.47
2018-11-04T01:52:21.932Z,56.70
2018-11-04T01:55:24.963Z,51.10
2018-11-04T01:58:28.013Z,43.63
2018-11-04T02:01:31.248Z,44.03
2018-11-04T02:04:34.507Z,43.83
2018-11-04T02:07:37.732Z,51.53
2018-11-04T02:10:40.797Z,59.33
2018-11-04T02:13:43.819Z,66.03
2018-11-04T02:16:46.876Z,66.83
2018-11-04T02:19:49.996Z,59.87
2018-11-04T02:22:52.959Z,62.53
2018-11-04T02:25:56.023Z,81.03
2018-11-04T02:28:59.047Z,71.17
2018-11-04T02:32:02.384Z,54.77
2018-11-04T02:35:05.748Z,47.53
2018-11-04T02:38:08.831Z,47.70
2018-11-04T02:41:11.828Z,50.73
2018-11-04T02:44:14.848Z,85.00
2018-11-04T02:47:17.908Z,69.23
2018-11-04T02:50:20.984Z,65.03
2018-11-04T02:53:23.991Z,52.60
2018-11-04T02:56:27.119Z,87.63
2018-11-04T02:59:30.180Z,89.67
2018-11-04T03:02:33.404Z,100.57
2018-11-04T03:05:36.465Z,116.77
2018-11-04T03:08:39.592Z,93.00
2018-11-04T03:11:42.652Z,111.63
2018-11-04T03:14:45.783Z,154.40
2018-11-04T03:17:48.837Z,105.57
2018-11-04T03:20:52.064Z,140.33
2018-11-04T03:23:55.125Z,70.23
2018-11-04T03:26:58.248Z,63.17
2018-11-04T03:30:01.307Z,63.60
2018-11-04T03:33:04.444Z,70.53
2018-11-04T03:36:07.600Z,86.77
2018-11-04T03:39:11.128Z,62.47
2018-11-04T03:42:14.196Z,79.70
2018-11-04T03:45:17.448Z,72.23
2018-11-04T03:48:20.480Z,83.37
2018-11-04T03:51:23.500Z,114.17
2018-11-04T03:54:26.564Z,86.97
2018-11-04T03:57:29.585Z,72.30
2018-11-04T04:00:32.646Z,104.17
2018-11-04T04:03:35.776Z,106.87
2018-11-04T04:06:38.739Z,96.50
2018-11-04T04:13:08.124Z,128.40
2018-11-04T04:16:11.217Z,94.87
2018-11-04T04:19:14.514Z,90.13
2018-11-04T04:22:17.612Z,90.77
2018-11-04T04:25:21.313Z,67.97
2018-11-04T04:28:24.406Z,75.67
2018-11-04T04:31:28.830Z,64.67
2018-11-04T04:34:31.922Z,58.43
2018-11-04T04:37:35.630Z,62.33
2018-11-04T04:40:39.337Z,68.27
2018-11-04T04:43:43.145Z,77.23
2018-11-04T04:46:46.854Z,79.23
2018-11-04T04:49:49.946Z,84.43
2018-11-04T04:52:53.652Z,83.07
2018-11-04T04:55:58.077Z,76.00
2018-11-04T04:59:01.631Z,72.87
2018-11-04T05:02:05.684Z,68.60
2018-11-04T05:05:09.336Z,60.10
2018-11-04T05:08:12.905Z,65.03
2018-11-04T05:11:16.101Z,68.83
2018-11-04T05:14:19.471Z,68.13
2018-11-04T05:17:22.703Z,70.80
2018-11-04T05:20:26.056Z,89.42
2018-11-04T05:23:29.202Z,76.90
2018-11-04T05:26:32.454Z,85.23
2018-11-04T05:29:35.699Z,65.63
2018-11-04T05:32:38.775Z,64.23
2018-11-04T05:35:41.814Z,79.50
2018-11-04T05:38:44.942Z,70.40
2018-11-04T05:41:48.127Z,80.00
2018-11-04T05:44:51.319Z,83.87
2018-11-04T05:47:55.217Z,79.80
2018-11-04T05:50:58.243Z,81.07
2018-11-04T05:54:01.291Z,74.30
2018-11-04T05:57:04.623Z,66.22
2018-11-04T06:00:08.919Z,63.50
2018-11-04T06:03:12.247Z,66.50
2018-11-04T06:06:15.442Z,59.57
2018-11-04T06:09:18.724Z,74.50
2018-11-04T06:12:21.795Z,69.77
2018-11-04T06:15:24.915Z,68.40
2018-11-04T06:18:27.979Z,66.60
2018-11-04T06:21:31.199Z,64.07
2018-11-04T06:24:34.397Z,73.10
2018-11-04T06:27:37.603Z,59.70
2018-11-04T06:30:40.900Z,71.90
2018-11-04T06:33:44.091Z,71.40
2018-11-04T06:36:47.293Z,68.03
2018-11-04T06:39:50.392Z,62.37
2018-11-04T06:42:53.439Z,64.23
2018-11-04T06:45:56.563Z,63.60
2018-11-04T06:48:59.670Z,61.93
2018-11-04T06:52:02.711Z,68.87
2018-11-04T06:55:06.698Z,68.12
2018-11-04T06:58:09.715Z,62.93
2018-11-04T07:01:12.849Z,70.95
2018-11-04T07:04:21.255Z,64.47
2018-11-04T07:07:24.360Z,58.98
2018-11-04T07:10:27.411Z,58.60
2018-11-04T07:13:30.434Z,66.27
2018-11-04T07:16:33.522Z,65.47
2018-11-04T07:19:36.628Z,62.83
2018-11-04T07:22:39.683Z,58.98
2018-11-04T07:25:42.760Z,64.00
2018-11-04T07:28:45.763Z,59.75
2018-11-04T07:31:48.788Z,60.60
2018-11-04T07:34:51.851Z,67.13
2018-11-04T07:37:54.882Z,71.77
2018-11-04T07:40:57.931Z,66.22
2018-11-04T07:44:01.167Z,64.50
2018-11-04T07:47:04.531Z,59.53
2018-11-04T07:50:09.883Z,60.17
2018-11-04T07:53:12.963Z,53.52
2018-11-04T07:56:16.191Z,60.90
2018-11-04T07:59:19.251Z,68.17
2018-11-04T08:02:22.486Z,60.03
2018-11-04T08:05:25.539Z,59.18
2018-11-04T08:08:28.567Z,66.02
2018-11-04T08:11:31.631Z,60.35
2018-11-04T08:14:34.648Z,60.08
2018-11-04T08:17:37.923Z,63.28
2018-11-04T08:20:41.039Z,58.35
2018-11-04T08:23:44.095Z,63.48
2018-11-04T08:26:47.224Z,54.00
2018-11-04T08:29:50.282Z,59.85
2018-11-04T08:32:53.307Z,62.58
2018-11-04T08:35:56.362Z,61.55
2018-11-04T08:38:59.491Z,63.00
2018-11-04T08:42:02.555Z,71.55
2018-11-04T08:45:06.487Z,61.13
2018-11-04T08:48:09.655Z,58.30
2018-11-04T08:51:12.724Z,53.85
2018-11-04T08:54:15.739Z,61.00
2018-11-04T08:57:18.764Z,61.87
2018-11-04T09:00:21.823Z,58.33
2018-11-04T09:03:25.055Z,59.70
2018-11-04T09:06:28.176Z,60.83
2018-11-04T09:09:31.247Z,63.58
2018-11-04T09:12:34.295Z,56.48
2018-11-04T09:15:37.324Z,58.87
2018-11-04T09:18:40.479Z,60.38
2018-11-04T09:21:43.773Z,63.15
2018-11-04T09:24:46.775Z,57.73
2018-11-04T09:27:49.791Z,60.70
2018-11-04T09:30:52.858Z,57.25
2018-11-04T09:33:56.079Z,62.17
2018-11-04T09:36:59.140Z,62.35
2018-11-04T09:40:02.267Z,63.68
2018-11-04T09:43:05.423Z,60.85
2018-11-04T09:46:08.533Z,66.07
2018-11-04T09:49:11.613Z,65.35
2018-11-04T09:52:14.634Z,62.65
2018-11-04T09:55:17.696Z,63.40
2018-11-04T09:58:20.923Z,62.83
2018-11-04T10:01:23.967Z,70.65
2018-11-04T10:04:27.015Z,63.10
2018-11-04T10:07:30.066Z,65.67
2018-11-04T10:10:33.139Z,69.50
2018-11-04T10:13:36.155Z,59.05
2018-11-04T10:16:39.239Z,67.62
2018-11-04T10:19:42.362Z,63.90
2018-11-04T10:22:45.464Z,63.10
2018-11-04T10:25:48.519Z,70.92
2018-11-04T10:28:51.748Z,76.37
2018-11-04T10:31:54.807Z,71.42
2018-11-04T10:34:57.818Z,71.17
2018-11-04T10:38:00.891Z,69.20
2018-11-04T10:41:03.955Z,71.55
2018-11-04T10:44:06.974Z,69.60
2018-11-04T10:47:10.000Z,71.75
2018-11-04T10:50:13.363Z,68.35
2018-11-04T10:53:16.427Z,69.72
2018-11-04T10:56:19.455Z,75.05
2018-11-04T10:59:22.475Z,66.75
2018-11-04T11:02:25.528Z,79.87
2018-11-04T11:05:28.562Z,68.47
2018-11-04T11:08:31.616Z,69.20
2018-11-04T11:11:34.635Z,74.15
2018-11-04T11:14:37.700Z,78.20
2018-11-04T11:17:40.860Z,78.12
2018-11-04T11:20:43.879Z,72.80
2018-11-04T11:23:46.908Z,76.15
2018-11-04T11:26:49.963Z,75.60
2018-11-04T11:29:53.045Z,69.82
2018-11-04T11:32:56.048Z,73.40
2018-11-04T11:35:59.079Z,75.50
2018-11-04T11:39:02.218Z,76.90
2018-11-04T11:42:05.270Z,75.57
2018-11-04T11:45:08.982Z,80.97
2018-11-04T11:48:12.092Z,75.15
2018-11-04T11:51:15.123Z,76.45
2018-11-04T11:54:18.239Z,79.53
2018-11-04T11:57:21.300Z,79.27
2018-11-04T12:00:24.347Z,72.32
2018-11-04T12:03:27.383Z,77.67
2018-11-04T12:06:30.412Z,82.57
2018-11-04T12:09:33.465Z,81.10
2018-11-04T12:12:36.493Z,75.22
2018-11-04T12:15:39.660Z,81.57
2018-11-04T12:18:42.775Z,81.57
2018-11-04T12:21:45.835Z,81.30
2018-11-04T12:24:48.942Z,82.55
2018-11-04T12:27:52.019Z,71.57
2018-11-04T12:30:55.043Z,72.55
2018-11-04T12:33:58.103Z,73.55
2018-11-04T12:37:01.443Z,77.70
2018-11-04T12:40:06.132Z,76.30
2018-11-04T12:43:09.158Z,79.82
2018-11-04T12:46:12.216Z,77.15
2018-11-04T12:49:15.344Z,77.05
2018-11-04T12:52:18.414Z,75.80
2018-11-04T12:55:21.532Z,77.27
2018-11-04T12:58:24.688Z,71.15
2018-11-04T13:01:27.820Z,68.50
2018-11-04T13:04:31.439Z,67.32
2018-11-04T13:07:34.511Z,75.78
2018-11-04T13:10:37.578Z,68.55
2018-11-04T13:13:40.595Z,70.32
2018-11-04T13:16:43.659Z,69.72
2018-11-04T13:19:46.787Z,70.37
2018-11-04T13:22:49.839Z,72.78
2018-11-04T13:25:52.863Z,77.35
2018-11-04T13:28:55.927Z,71.87
2018-11-04T13:31:59.360Z,71.72
2018-11-04T13:35:02.519Z,73.12
2018-11-04T13:38:05.748Z,72.80
2018-11-04T13:41:08.802Z,69.05
2018-11-04T13:44:11.975Z,74.12
2018-11-04T13:47:14.995Z,72.22
2018-11-04T13:50:18.004Z,74.35
2018-11-04T13:53:21.058Z,72.75
2018-11-04T13:56:24.195Z,78.15
2018-11-04T13:59:27.239Z,77.95
2018-11-04T14:02:30.382Z,73.28
2018-11-04T14:05:33.426Z,76.57
2018-11-04T14:08:36.475Z,78.35
2018-11-04T14:11:39.554Z,73.95
2018-11-04T14:14:42.659Z,78.78
2018-11-04T14:17:45.714Z,78.95
2018-11-04T14:20:48.949Z,79.80
2018-11-04T14:23:52.020Z,86.10
2018-11-04T14:26:55.134Z,83.95
2018-11-04T14:29:58.191Z,74.77
2018-11-04T14:33:01.207Z,77.25
2018-11-04T14:36:04.267Z,89.25
2018-11-04T14:39:08.363Z,86.90
2018-11-04T14:42:11.381Z,86.97
2018-11-04T14:45:14.402Z,85.80
2018-11-04T14:48:17.459Z,93.60
2018-11-04T14:51:20.524Z,79.53
2018-11-04T14:54:23.546Z,83.03
2018-11-04T14:57:26.567Z,88.12
2018-11-04T15:00:34.264Z,91.20
2018-11-04T15:03:37.455Z,87.60
2018-11-04T15:06:40.420Z,89.52
2018-11-04T15:09:43.547Z,96.90
2018-11-04T15:12:46.603Z,92.97
2018-11-04T15:15:49.691Z,99.28
2018-11-04T15:18:52.841Z,97.45
2018-11-04T15:21:55.819Z,90.65
2018-11-04T15:24:58.877Z,92.60
2018-11-04T15:28:02.103Z,95.05
2018-11-04T15:31:05.263Z,100.80
2018-11-04T15:34:08.397Z,96.45
2018-11-04T15:37:11.351Z,87.88
2018-11-04T15:40:15.333Z,99.32
2018-11-04T15:43:18.350Z,99.77
2018-11-04T15:46:21.475Z,92.88
2018-11-04T15:49:24.535Z,96.22
2018-11-04T15:52:27.768Z,91.10
2018-11-04T15:55:30.834Z,91.40
2018-11-04T15:58:34.302Z,86.65
2018-11-04T16:01:37.327Z,96.05
2018-11-04T16:04:44.551Z,93.55
2018-11-04T16:07:43.810Z,94.62
2018-11-04T16:10:46.940Z,93.25
2018-11-04T16:13:49.999Z,107.35
2018-11-04T16:16:53.123Z,105.22
2018-11-04T16:19:56.283Z,108.67
2018-11-04T16:22:59.615Z,101.62
2018-11-04T16:26:02.675Z,111.37
2018-11-04T16:29:05.681Z,140.28
2018-11-04T16:32:08.879Z,123.62
2018-11-04T16:35:13.011Z,111.12
2018-11-04T16:38:16.050Z,98.05
2018-11-04T16:41:19.070Z,100.15
2018-11-04T16:44:22.375Z,93.00
2018-11-04T16:47:25.447Z,101.33
2018-11-04T16:50:28.444Z,100.15
2018-11-04T16:53:31.464Z,107.25
2018-11-04T16:56:34.625Z,101.97
2018-11-04T16:59:38.579Z,109.00
2018-11-04T17:02:41.733Z,102.47
2018-11-04T17:05:44.951Z,96.50
2018-11-04T17:08:47.915Z,114.80
2018-11-04T17:11:50.940Z,103.78
2018-11-04T17:14:53.999Z,111.15
2018-11-04T17:17:57.060Z,108.67
2018-11-04T17:21:00.083Z,102.62
2018-11-04T17:24:03.107Z,109.90
2018-11-04T17:27:06.168Z,112.57
2018-11-04T17:30:12.927Z,119.02
2018-11-04T17:33:15.958Z,113.32
2018-11-04T17:36:19.108Z,111.45
2018-11-04T17:39:22.199Z,116.05
2018-11-04T17:42:25.286Z,105.45
2018-11-04T17:45:28.325Z,126.07
2018-11-04T17:48:31.435Z,120.67
2018-11-04T17:51:34.471Z,106.87
2018-11-04T17:54:37.551Z,106.52
2018-11-04T17:57:40.675Z,110.32
2018-11-04T18:00:43.707Z,114.62
2018-11-04T18:03:46.759Z,115.00
2018-11-04T18:06:50.092Z,117.67
2018-11-04T18:09:53.147Z,125.55
2018-11-04T18:12:56.151Z,112.22
2018-11-04T18:15:59.231Z,101.72
2018-11-04T18:19:02.295Z,107.72
2018-11-04T18:22:05.651Z,112.37
2018-11-04T18:25:09.767Z,108.70
2018-11-04T18:28:12.811Z,109.03
2018-11-04T18:31:15.855Z,116.37
2018-11-04T18:34:18.925Z,121.07
2018-11-04T18:37:22.045Z,122.35
2018-11-04T18:40:25.103Z,132.43
2018-11-04T18:43:28.130Z,127.10
2018-11-04T18:46:31.283Z,112.08
2018-11-04T18:49:34.307Z,111.68
2018-11-04T18:52:37.754Z,120.15
2018-11-04T18:55:40.804Z,120.40
2018-11-04T18:58:43.999Z,159.07
2018-11-04T19:01:47.056Z,148.70
2018-11-04T19:04:50.208Z,128.70
2018-11-04T19:07:53.247Z,115.15
2018-11-04T19:10:56.424Z,124.30
2018-11-04T19:13:59.483Z,111.65
2018-11-04T19:17:02.550Z,111.55
2018-11-04T19:20:07.482Z,120.92
2018-11-04T19:23:10.647Z,110.90
2018-11-04T19:26:13.886Z,129.75
2018-11-04T19:29:16.938Z,124.70
2018-11-04T19:32:20.172Z,122.05
2018-11-04T19:35:23.229Z,130.10
2018-11-04T19:38:26.363Z,129.23
2018-11-04T19:41:29.442Z,133.32
2018-11-04T19:44:32.563Z,131.03
2018-11-04T19:47:35.695Z,132.85
2018-11-04T19:50:38.719Z,133.22
2018-11-04T19:53:41.786Z,138.75
2018-11-04T19:56:44.928Z,154.50
2018-11-04T19:59:47.967Z,126.67
2018-11-04T20:02:51.075Z,142.30
2018-11-04T20:05:54.210Z,137.82
2018-11-04T20:09:16.535Z,141.65
2018-11-04T20:12:24.979Z,164.05
2018-11-04T20:15:28.045Z,147.90
2018-11-04T20:18:36.569Z,138.97
2018-11-04T20:21:39.667Z,157.25
2018-11-04T20:24:48.146Z,165.95
2018-11-04T20:27:51.165Z,143.05
2018-11-04T20:30:54.502Z,147.00
2018-11-04T20:33:57.627Z,126.53
2018-11-04T20:37:00.756Z,129.20
2018-11-04T20:40:09.979Z,130.72
2018-11-04T20:43:13.079Z,128.20
2018-11-04T20:46:16.251Z,144.30
2018-11-04T20:49:24.778Z,134.67
2018-11-04T20:52:27.882Z,141.25
2018-11-04T20:55:36.560Z,134.30
2018-11-04T20:58:39.892Z,130.40
2018-11-04T21:01:42.872Z,122.05
2018-11-04T21:04:45.993Z,123.67
2018-11-04T21:07:49.186Z,136.90
2018-11-04T21:10:52.387Z,130.67
2018-11-04T21:13:55.548Z,134.63
2018-11-04T21:16:58.572Z,133.10
2018-11-04T21:20:01.630Z,121.70
2018-11-04T21:23:04.747Z,103.67
2018-11-04T21:26:07.810Z,113.10
2018-11-04T21:29:11.021Z,126.07
2018-11-04T21:32:13.892Z,124.45
2018-11-04T21:35:16.927Z,137.50
2018-11-04T21:38:20.185Z,125.40
2018-11-04T21:41:23.833Z,134.63
2018-11-04T21:44:26.941Z,131.10
2018-11-04T21:47:30.012Z,140.55
2018-11-04T21:50:33.063Z,127.15
2018-11-04T21:53:36.103Z,122.80
2018-11-04T21:56:39.357Z,109.40
2018-11-04T21:59:42.287Z,105.20
2018-11-04T22:02:45.453Z,99.62
2018-11-04T22:05:48.456Z,105.90
2018-11-04T22:08:51.520Z,95.47
2018-11-04T22:11:54.523Z,88.65
2018-11-04T22:14:57.734Z,98.97
2018-11-04T22:18:01.071Z,92.85
2018-11-04T22:21:04.240Z,94.60
2018-11-04T22:24:07.327Z,90.80
2018-11-04T22:27:10.380Z,93.03
2018-11-04T22:30:13.408Z,94.87
2018-11-04T22:33:16.463Z,101.33
2018-11-04T22:36:19.626Z,100.53
2018-11-04T22:39:22.655Z,102.45
2018-11-04T22:42:25.753Z,102.22
2018-11-04T22:45:28.731Z,107.03
2018-11-04T22:48:31.770Z,108.20
2018-11-04T22:51:34.819Z,106.95
2018-11-04T22:54:37.840Z,99.80
2018-11-04T22:57:41.410Z,106.17
2018-11-04T23:00:46.180Z,120.70
2018-11-04T23:03:49.255Z,124.95
2018-11-04T23:06:52.371Z,106.30
2018-11-04T23:09:55.419Z,110.97
2018-11-04T23:12:58.555Z,109.03
2018-11-04T23:16:01.608Z,122.75
2018-11-04T23:19:04.732Z,127.90
2018-11-04T23:22:07.794Z,119.13
2018-11-04T23:25:12.374Z,125.72
2018-11-04T23:28:15.407Z,115.80
2018-11-04T23:31:18.432Z,142.70
2018-11-04T23:34:21.491Z,121.13
2018-11-04T23:37:24.515Z,118.33
2018-11-04T23:40:27.575Z,141.50
2018-11-04T23:43:30.707Z,131.43
2018-11-04T23:46:33.767Z,122.45
2018-11-04T23:49:36.782Z,127.95
2018-11-04T23:52:39.856Z,137.35
2018-11-04T23:55:42.992Z,135.60
2018-11-04T23:58:46.031Z,131.60
